Time;durP1;ratioP1;P1;durP2;ratioP2;P2;SDS_P1;SDS_P2;PMS_P1;PMS_P2;Temp;Humidity;BMP_temperature;BMP_pressure;BME280_temperature;BME280_humidity;BME280_pressure;Samples;Min_cycle;Max_cycle;Signal;HPM_P1;HPM_P2
2022/06/06 00:01:15;;;;;;;;;;;14.70;99.90;;;;;;5089983;28;19930;-62
2022/06/06 00:03:43;;;;;;;;;;;14.50;99.90;;;;;;5090601;28;19924;-62
2022/06/06 00:06:18;;;;;;;;;;;14.50;99.90;;;;;;5092271;28;19924;-62
2022/06/06 00:08:47;;;;;;;;;;;14.50;99.90;;;;;;5091289;28;20413;-62
2022/06/06 00:11:14;;;;;;;;;;;14.40;99.90;;;;;;5092471;28;20022;-62
2022/06/06 00:13:42;;;;;;;;;;;14.40;99.90;;;;;;5092451;28;19924;-62
2022/06/06 00:16:10;;;;;;;;;;;14.30;99.90;;;;;;5086351;28;19977;-62
2022/06/06 00:18:36;;;;;;;;;;;14.30;99.90;;;;;;5088512;28;19924;-62
2022/06/06 00:21:05;;;;;;;;;;;14.20;99.90;;;;;;5087985;28;20023;-62
2022/06/06 00:23:32;;;;;;;;;;;14.20;99.90;;;;;;5090584;28;19978;-61
2022/06/06 00:25:58;;;;;;;;;;;14.20;99.90;;;;;;5091121;28;19928;-62
2022/06/06 00:28:25;;;;;;;;;;;14.20;99.90;;;;;;5090757;28;20550;-62
2022/06/06 00:30:56;;;;;;;;;;;14.10;99.90;;;;;;5091267;28;19924;-62
2022/06/06 00:36:11;;;;;;;;;;;14.40;99.90;;;;;;5088793;28;19931;-62
2022/06/06 00:38:38;;;;;;;;;;;14.50;99.90;;;;;;5090242;28;19924;-62
2022/06/06 00:41:08;;;;;;;;;;;14.30;99.90;;;;;;5090229;28;20400;-62
2022/06/06 00:43:37;;;;;;;;;;;14.20;99.90;;;;;;5090741;28;19990;-62
2022/06/06 00:46:07;;;;;;;;;;;14.20;99.90;;;;;;5091332;28;20014;-62
2022/06/06 00:48:39;;;;;;;;;;;14.10;99.90;;;;;;5082817;28;19928;-62
2022/06/06 00:51:08;;;;;;;;;;;14.10;99.90;;;;;;5090080;28;20433;-61
2022/06/06 00:53:35;;;;;;;;;;;14.10;99.90;;;;;;5089974;28;20019;-62
2022/06/06 00:56:05;;;;;;;;;;;14.20;99.90;;;;;;5082496;28;19930;-62
2022/06/06 00:58:36;;;;;;;;;;;14.20;99.90;;;;;;5083377;28;20342;-61
2022/06/06 01:01:03;;;;;;;;;;;14.10;99.90;;;;;;5089953;28;20546;-62
2022/06/06 01:03:30;;;;;;;;;;;14.20;99.90;;;;;;5081005;28;20023;-62
2022/06/06 01:05:58;;;;;;;;;;;14.20;99.90;;;;;;5087865;28;19924;-62
2022/06/06 01:08:25;;;;;;;;;;;14.20;99.90;;;;;;5086499;28;20018;-65
2022/06/06 01:10:51;;;;;;;;;;;14.00;99.90;;;;;;5086984;28;19927;-62
2022/06/06 01:13:19;;;;;;;;;;;14.00;99.90;;;;;;5087722;28;20012;-62
2022/06/06 01:15:53;;;;;;;;;;;14.10;99.90;;;;;;5089089;28;20209;-62
2022/06/06 01:18:28;;;;;;;;;;;14.10;99.90;;;;;;5082861;28;20014;-62
2022/06/06 01:21:07;;;;;;;;;;;14.10;99.90;;;;;;5079843;28;19935;-62
2022/06/06 01:23:54;;;;;;;;;;;14.00;99.90;;;;;;5084819;28;20011;-62
2022/06/06 01:26:38;;;;;;;;;;;13.90;99.90;;;;;;5097728;28;19947;-62
2022/06/06 01:29:13;;;;;;;;;;;13.80;99.90;;;;;;5088882;28;19973;-62
2022/06/06 01:31:48;;;;;;;;;;;13.80;99.90;;;;;;5090630;28;19928;-63
2022/06/06 01:34:23;;;;;;;;;;;13.90;99.90;;;;;;5090973;28;20005;-61
2022/06/06 01:36:50;;;;;;;;;;;14.00;99.90;;;;;;5074150;28;19924;-62
2022/06/06 01:39:18;;;;;;;;;;;14.00;99.90;;;;;;5084167;28;19925;-61
2022/06/06 01:41:45;;;;;;;;;;;14.10;99.90;;;;;;5090013;28;19928;-62
2022/06/06 01:44:21;;;;;;;;;;;14.00;99.90;;;;;;5092929;28;19928;-62
2022/06/06 01:46:48;;;;;;;;;;;13.90;99.90;;;;;;5088377;28;19928;-62
2022/06/06 01:49:16;;;;;;;;;;;14.00;99.90;;;;;;5090070;28;20416;-61
2022/06/06 01:51:42;;;;;;;;;;;14.00;99.90;;;;;;5089107;28;19924;-63
2022/06/06 01:54:13;;;;;;;;;;;13.90;99.90;;;;;;5081911;28;20059;-62
2022/06/06 01:56:40;;;;;;;;;;;13.90;99.90;;;;;;5094742;28;25099;-62
2022/06/06 01:59:06;;;;;;;;;;;13.90;99.90;;;;;;5089687;28;20015;-62
2022/06/06 02:01:33;;;;;;;;;;;13.90;99.90;;;;;;5087233;28;19924;-63
2022/06/06 02:04:00;;;;;;;;;;;14.00;99.90;;;;;;5089665;28;19924;-62
2022/06/06 02:06:27;;;;;;;;;;;14.10;99.90;;;;;;5090072;28;19924;-63
2022/06/06 02:08:54;;;;;;;;;;;14.10;99.90;;;;;;5009151;28;42110;-63
2022/06/06 02:11:21;;;;;;;;;;;14.20;99.90;;;;;;4990341;28;33063;-63
2022/06/06 02:13:48;;;;;;;;;;;14.20;99.90;;;;;;4987135;28;30073;-63
2022/06/06 02:16:15;;;;;;;;;;;14.30;99.90;;;;;;4983922;28;26191;-63
2022/06/06 02:18:42;;;;;;;;;;;14.30;99.90;;;;;;4982159;28;28158;-62
2022/06/06 02:21:11;;;;;;;;;;;14.30;99.90;;;;;;4988102;28;30084;-63
2022/06/06 02:23:37;;;;;;;;;;;14.20;99.90;;;;;;4978649;28;35103;-63
2022/06/06 02:26:04;;;;;;;;;;;14.10;99.90;;;;;;4968709;28;28169;-62
2022/06/06 02:28:36;;;;;;;;;;;14.00;99.90;;;;;;4976120;28;26128;-62
2022/06/06 02:31:03;;;;;;;;;;;14.00;99.90;;;;;;4994812;28;32107;-62
2022/06/06 02:33:30;;;;;;;;;;;14.00;99.90;;;;;;5002719;28;27125;-62
2022/06/06 02:36:00;;;;;;;;;;;14.00;99.90;;;;;;4987365;28;27103;-62
2022/06/06 02:38:27;;;;;;;;;;;14.00;99.90;;;;;;4979526;28;31134;-61
2022/06/06 02:40:54;;;;;;;;;;;14.00;99.90;;;;;;4985550;28;33073;-62
2022/06/06 02:43:21;;;;;;;;;;;13.90;99.90;;;;;;4990405;28;27949;-62
2022/06/06 02:45:48;;;;;;;;;;;13.90;99.90;;;;;;4990344;28;32125;-62
2022/06/06 02:48:16;;;;;;;;;;;13.80;99.90;;;;;;4972881;28;30932;-62
2022/06/06 02:50:45;;;;;;;;;;;13.80;99.90;;;;;;4975163;28;26109;-62
2022/06/06 02:53:12;;;;;;;;;;;13.80;99.90;;;;;;4987483;28;40102;-62
2022/06/06 02:55:39;;;;;;;;;;;13.70;99.90;;;;;;4980062;28;30226;-62
2022/06/06 02:58:06;;;;;;;;;;;13.70;99.90;;;;;;4992879;28;29072;-62
2022/06/06 03:00:33;;;;;;;;;;;13.70;99.90;;;;;;4992377;28;27124;-63
2022/06/06 03:03:00;;;;;;;;;;;13.60;99.90;;;;;;4994102;28;25060;-62
2022/06/06 03:05:34;;;;;;;;;;;13.70;99.90;;;;;;4991013;28;32125;-62
2022/06/06 03:08:20;;;;;;;;;;;13.80;99.90;;;;;;4992310;28;35098;-62
2022/06/06 03:11:02;;;;;;;;;;;13.70;99.90;;;;;;4985737;28;28178;-62
2022/06/06 03:13:54;;;;;;;;;;;13.70;99.90;;;;;;4992258;28;28063;-62
2022/06/06 03:22:15;;;;;;;;;;;13.60;99.90;;;;;;4978495;28;29060;-62
2022/06/06 03:24:58;;;;;;;;;;;13.70;99.90;;;;;;4987562;28;33169;-62
2022/06/06 03:27:36;;;;;;;;;;;13.70;99.90;;;;;;4986259;28;27095;-63
2022/06/06 03:30:21;;;;;;;;;;;13.70;99.90;;;;;;4989482;28;30075;-63
2022/06/06 03:32:58;;;;;;;;;;;13.60;99.90;;;;;;4983977;28;25083;-62
2022/06/06 03:35:32;;;;;;;;;;;13.60;99.90;;;;;;4980184;28;36103;-66
2022/06/06 03:38:02;;;;;;;;;;;13.50;99.90;;;;;;4983226;28;26079;-62
2022/06/06 03:40:53;;;;;;;;;;;13.50;99.90;;;;;;4993408;28;27142;-62
2022/06/06 03:43:29;;;;;;;;;;;13.40;99.90;;;;;;4994173;28;27054;-62
2022/06/06 03:45:56;;;;;;;;;;;13.50;99.90;;;;;;4981578;28;30069;-62
2022/06/06 03:48:28;;;;;;;;;;;13.50;99.90;;;;;;4999539;28;33063;-63
2022/06/06 03:51:04;;;;;;;;;;;13.50;99.90;;;;;;4980293;28;28064;-62
2022/06/06 03:54:01;;;;;;;;;;;13.50;99.90;;;;;;4983007;28;30033;-62
2022/06/06 03:56:46;;;;;;;;;;;13.50;99.90;;;;;;4878945;28;26056;-63
2022/06/06 03:59:14;;;;;;;;;;;13.60;99.90;;;;;;4885057;28;27127;-62
2022/06/06 04:01:42;;;;;;;;;;;13.70;99.90;;;;;;4896289;28;27122;-62
2022/06/06 04:04:09;;;;;;;;;;;13.80;99.90;;;;;;4927706;28;25109;-62
2022/06/06 04:06:36;;;;;;;;;;;14.10;99.90;;;;;;4987881;28;19932;-62
2022/06/06 04:09:03;;;;;;;;;;;14.20;99.90;;;;;;4989187;28;19933;-62
2022/06/06 04:11:29;;;;;;;;;;;14.30;99.90;;;;;;4988711;28;19945;-62
2022/06/06 04:14:02;;;;;;;;;;;14.50;99.90;;;;;;4988488;28;19925;-62
2022/06/06 04:16:36;;;;;;;;;;;14.60;99.90;;;;;;4976299;28;19937;-63
2022/06/06 04:19:03;;;;;;;;;;;14.80;99.90;;;;;;4989837;28;20496;-63
2022/06/06 04:21:29;;;;;;;;;;;14.90;99.90;;;;;;4989792;28;19964;-62
2022/06/06 04:24:18;;;;;;;;;;;15.00;99.90;;;;;;4987919;28;20070;-62
2022/06/06 04:27:04;;;;;;;;;;;15.00;99.90;;;;;;4974121;28;19929;-63
2022/06/06 04:29:37;;;;;;;;;;;15.10;99.90;;;;;;4969343;28;19926;-62
2022/06/06 04:32:18;;;;;;;;;;;15.20;99.90;;;;;;4998676;28;20304;-63
2022/06/06 04:35:07;;;;;;;;;;;15.20;99.90;;;;;;5089418;28;19928;-63
2022/06/06 04:37:34;;;;;;;;;;;15.30;99.90;;;;;;5087888;28;20448;-62
2022/06/06 04:40:05;;;;;;;;;;;15.20;99.90;;;;;;5079650;28;19924;-62
2022/06/06 04:42:39;;;;;;;;;;;15.20;99.90;;;;;;5085847;28;19924;-62
2022/06/06 04:45:21;;;;;;;;;;;15.20;99.90;;;;;;5088651;28;20360;-62
2022/06/06 04:47:48;;;;;;;;;;;15.50;99.90;;;;;;5088700;28;19932;-62
2022/06/06 04:50:17;;;;;;;;;;;16.30;99.90;;;;;;5087734;28;19928;-62
2022/06/06 04:52:54;;;;;;;;;;;17.80;99.90;;;;;;5085444;28;19933;-62
2022/06/06 04:55:22;;;;;;;;;;;19.10;99.90;;;;;;5057836;28;20129;-63
2022/06/06 04:57:51;;;;;;;;;;;20.60;99.90;;;;;;5059095;28;19931;-63
2022/06/06 05:00:17;;;;;;;;;;;21.00;99.90;;;;;;5067306;28;19924;-63
2022/06/06 05:02:44;;;;;;;;;;;21.10;99.90;;;;;;5069901;28;19925;-62
2022/06/06 05:05:11;;;;;;;;;;;20.70;99.90;;;;;;5063746;28;20302;-62
2022/06/06 05:07:49;;;;;;;;;;;20.00;99.90;;;;;;5065976;28;19925;-62
2022/06/06 05:10:28;;;;;;;;;;;19.30;99.90;;;;;;5061535;28;19928;-62
2022/06/06 05:13:01;;;;;;;;;;;18.70;99.90;;;;;;5062159;28;19925;-62
2022/06/06 05:15:37;;;;;;;;;;;18.40;99.90;;;;;;5056588;28;20397;-62
2022/06/06 05:18:15;;;;;;;;;;;18.90;99.90;;;;;;5052220;28;19947;-64
2022/06/06 05:21:01;;;;;;;;;;;19.60;99.90;;;;;;5051862;28;19925;-62
2022/06/06 05:23:40;;;;;;;;;;;20.20;99.90;;;;;;5051410;28;19924;-62
2022/06/06 05:26:09;;;;;;;;;;;20.20;99.90;;;;;;5063638;28;19928;-63
2022/06/06 05:28:47;;;;;;;;;;;20.40;99.90;;;;;;5064110;28;19960;-62
2022/06/06 05:31:33;;;;;;;;;;;20.50;99.90;;;;;;5071493;28;20403;-62
2022/06/06 05:34:05;;;;;;;;;;;20.40;99.90;;;;;;5071269;28;19955;-63
2022/06/06 05:36:38;;;;;;;;;;;20.40;99.90;;;;;;5071755;28;19931;-63
2022/06/06 05:39:30;;;;;;;;;;;20.40;99.90;;;;;;5071687;28;19924;-62
2022/06/06 05:42:00;;;;;;;;;;;20.60;99.90;;;;;;5070289;28;19924;-63
2022/06/06 05:44:26;;;;;;;;;;;20.60;99.90;;;;;;5071128;28;20015;-63
2022/06/06 05:47:00;;;;;;;;;;;21.00;99.90;;;;;;5067818;28;20372;-62
2022/06/06 05:49:30;;;;;;;;;;;21.10;99.90;;;;;;5051490;28;19925;-62
2022/06/06 05:52:18;;;;;;;;;;;21.30;99.90;;;;;;5051162;28;19939;-60
2022/06/06 05:55:05;;;;;;;;;;;22.20;99.90;;;;;;5066143;28;19924;-59
2022/06/06 05:57:34;;;;;;;;;;;22.70;99.90;;;;;;5065973;28;19925;-60
2022/06/06 06:00:19;;;;;;;;;;;22.90;99.90;;;;;;5069497;28;19930;-61
2022/06/06 06:03:10;;;;;;;;;;;22.80;99.90;;;;;;5066526;28;19924;-61
2022/06/06 06:05:37;;;;;;;;;;;21.80;99.90;;;;;;5071188;28;20011;-61
2022/06/06 06:08:19;;;;;;;;;;;20.70;99.90;;;;;;5070226;28;19931;-62
2022/06/06 06:10:50;;;;;;;;;;;20.40;99.90;;;;;;5049969;28;19925;-62
2022/06/06 06:13:36;;;;;;;;;;;20.40;99.90;;;;;;5051796;28;19929;-62
2022/06/06 06:16:04;;;;;;;;;;;20.50;99.90;;;;;;5061670;28;19924;-62
2022/06/06 06:18:41;;;;;;;;;;;21.10;99.90;;;;;;5077760;28;20323;-61
2022/06/06 06:21:11;;;;;;;;;;;22.00;99.90;;;;;;5074781;28;19963;-61
2022/06/06 06:23:57;;;;;;;;;;;22.70;99.90;;;;;;5077491;28;19928;-61
2022/06/06 06:26:24;;;;;;;;;;;23.70;99.90;;;;;;5073443;28;19929;-62
2022/06/06 06:28:52;;;;;;;;;;;24.80;99.90;;;;;;5077567;28;20043;-61
2022/06/06 06:31:36;;;;;;;;;;;24.60;99.90;;;;;;5078020;28;19964;-61
2022/06/06 06:34:03;;;;;;;;;;;25.40;99.90;;;;;;5076132;28;22553;-63
2022/06/06 06:36:39;;;;;;;;;;;26.10;99.90;;;;;;5077619;28;20287;-61
2022/06/06 06:39:29;;;;;;;;;;;25.80;99.90;;;;;;5076935;28;20011;-61
2022/06/06 06:42:14;;;;;;;;;;;24.50;99.90;;;;;;5065151;28;19928;-61
2022/06/06 06:44:46;;;;;;;;;;;23.30;99.90;;;;;;5077342;28;19971;-61
2022/06/06 06:47:18;;;;;;;;;;;22.30;99.90;;;;;;5065467;28;19964;-62
2022/06/06 06:49:47;;;;;;;;;;;21.80;99.90;;;;;;5077702;28;19960;-61
2022/06/06 06:52:27;;;;;;;;;;;21.30;99.90;;;;;;5077374;28;20015;-61
2022/06/06 06:55:09;;;;;;;;;;;20.90;99.90;;;;;;5077289;28;19925;-62
2022/06/06 06:57:55;;;;;;;;;;;21.00;99.90;;;;;;5075990;28;20410;-62
2022/06/06 07:00:25;;;;;;;;;;;21.00;99.90;;;;;;5077632;28;19925;-63
2022/06/06 07:09:06;;;;;;;;;;;21.30;99.90;;;;;;5077262;28;20459;-62
2022/06/06 07:11:51;;;;;;;;;;;21.60;99.90;;;;;;5068139;28;19964;-62
2022/06/06 07:14:35;;;;;;;;;;;22.00;99.90;;;;;;5060937;28;19956;-62
2022/06/06 07:17:02;;;;;;;;;;;22.20;99.90;;;;;;5066862;28;19925;-62
2022/06/06 07:19:35;;;;;;;;;;;22.20;99.90;;;;;;5077279;28;19925;-62
2022/06/06 07:22:02;;;;;;;;;;;22.20;99.90;;;;;;5076546;28;20016;-62
2022/06/06 07:24:31;;;;;;;;;;;22.10;99.90;;;;;;5077049;28;20060;-62
2022/06/06 07:26:59;;;;;;;;;;;22.40;99.90;;;;;;5072781;28;19924;-62
2022/06/06 07:29:26;;;;;;;;;;;22.50;99.90;;;;;;5074112;28;19928;-62
2022/06/06 07:31:53;;;;;;;;;;;22.40;99.90;;;;;;5073476;28;19964;-62
2022/06/06 07:34:33;;;;;;;;;;;22.10;99.90;;;;;;5071774;28;19931;-62
2022/06/06 07:37:09;;;;;;;;;;;22.10;99.90;;;;;;5072766;28;20298;-61
2022/06/06 07:39:35;;;;;;;;;;;22.20;99.90;;;;;;5072206;28;19932;-62
2022/06/06 07:42:19;;;;;;;;;;;23.20;99.90;;;;;;5072713;28;19924;-60
2022/06/06 07:45:02;;;;;;;;;;;24.90;99.90;;;;;;5078565;28;19924;-59
2022/06/06 07:47:36;;;;;;;;;;;25.60;99.90;;;;;;5072300;28;19936;-60
2022/06/06 07:50:18;;;;;;;;;;;25.60;99.90;;;;;;5072226;28;19930;-60
2022/06/06 07:52:59;;;;;;;;;;;25.00;99.90;;;;;;5065902;28;20007;-60
2022/06/06 07:55:31;;;;;;;;;;;24.30;99.90;;;;;;5053709;28;19925;-60
2022/06/06 07:58:09;;;;;;;;;;;23.10;99.90;;;;;;5053496;28;19932;-61
2022/06/06 08:00:39;;;;;;;;;;;22.10;99.90;;;;;;5053703;28;20015;-59
2022/06/06 08:03:17;;;;;;;;;;;20.80;99.90;;;;;;5052877;28;19924;-60
2022/06/06 08:05:44;;;;;;;;;;;19.50;99.90;;;;;;5053856;28;19931;-60
2022/06/06 08:08:10;;;;;;;;;;;18.50;99.90;;;;;;5068875;28;20024;-59
2022/06/06 08:10:44;;;;;;;;;;;17.90;99.90;;;;;;5071655;28;20006;-60
2022/06/06 08:13:33;;;;;;;;;;;17.30;99.90;;;;;;5052740;28;19971;-60
2022/06/06 08:16:19;;;;;;;;;;;16.70;99.90;;;;;;5054299;28;20031;-60
2022/06/06 08:18:58;;;;;;;;;;;16.40;99.90;;;;;;5073369;28;19924;-60
2022/06/06 08:21:29;;;;;;;;;;;16.20;99.90;;;;;;5072057;28;19959;-62
2022/06/06 08:23:58;;;;;;;;;;;16.10;99.90;;;;;;5072322;28;19931;-60
2022/06/06 08:26:25;;;;;;;;;;;16.00;99.90;;;;;;5073517;28;19931;-61
2022/06/06 08:28:52;;;;;;;;;;;16.00;99.90;;;;;;5073274;28;19954;-61
2022/06/06 08:31:19;;;;;;;;;;;16.00;99.90;;;;;;5071668;28;19924;-61
2022/06/06 08:33:47;;;;;;;;;;;16.10;99.90;;;;;;5072415;28;19924;-61
2022/06/06 08:36:30;;;;;;;;;;;16.10;99.90;;;;;;5062982;28;20011;-62
2022/06/06 08:39:00;;;;;;;;;;;16.10;99.90;;;;;;5063882;28;19971;-61
2022/06/06 08:41:45;;;;;;;;;;;16.20;99.90;;;;;;5072269;28;20023;-62
2022/06/06 08:44:27;;;;;;;;;;;16.20;99.90;;;;;;5062654;28;20371;-62
2022/06/06 08:47:00;;;;;;;;;;;16.20;99.90;;;;;;5072354;28;20413;-61
2022/06/06 08:52:27;;;;;;;;;;;16.30;99.90;;;;;;5071009;28;19939;-62
2022/06/06 08:55:10;;;;;;;;;;;16.40;99.90;;;;;;5071869;28;20440;-62
2022/06/06 08:57:52;;;;;;;;;;;16.70;99.90;;;;;;5072080;28;19925;-62
2022/06/06 09:00:38;;;;;;;;;;;16.80;99.90;;;;;;5071097;28;19998;-62
2022/06/06 09:03:31;;;;;;;;;;;17.10;99.90;;;;;;5071840;28;19994;-62
2022/06/06 09:06:06;;;;;;;;;;;17.40;99.90;;;;;;5070260;28;19925;-62
2022/06/06 09:08:33;;;;;;;;;;;18.00;99.90;;;;;;5070981;28;20383;-75
2022/06/06 09:11:13;;;;;;;;;;;18.90;99.90;;;;;;5073777;28;19929;-74
2022/06/06 09:13:56;;;;;;;;;;;20.10;99.90;;;;;;5072795;28;19946;-74
2022/06/06 09:16:41;;;;;;;;;;;21.00;99.90;;;;;;5073172;28;20007;-75
2022/06/06 09:19:27;;;;;;;;;;;21.40;99.90;;;;;;5062402;28;19933;-78
2022/06/06 09:21:56;;;;;;;;;;;22.10;99.90;;;;;;5052902;28;20015;-74
2022/06/06 09:24:42;;;;;;;;;;;22.40;99.90;;;;;;5051834;28;19925;-73
2022/06/06 09:27:27;;;;;;;;;;;22.70;99.90;;;;;;5053754;28;19931;-76
2022/06/06 09:29:57;;;;;;;;;;;22.90;99.90;;;;;;5067278;28;19938;-74
2022/06/06 09:32:32;;;;;;;;;;;23.40;99.90;;;;;;5073453;28;19932;-74
2022/06/06 09:35:14;;;;;;;;;;;23.70;99.90;;;;;;5072050;28;19934;-75
2022/06/06 09:38:02;;;;;;;;;;;24.40;99.90;;;;;;5072852;28;20347;-75
2022/06/06 09:40:47;;;;;;;;;;;24.60;99.90;;;;;;5073013;28;19931;-71
2022/06/06 09:43:22;;;;;;;;;;;24.80;99.90;;;;;;5052621;28;19928;-79
2022/06/06 09:46:04;;;;;;;;;;;24.60;99.90;;;;;;5053162;28;20008;-76
2022/06/06 09:48:40;;;;;;;;;;;24.10;99.90;;;;;;5053110;28;19924;-76
2022/06/06 09:51:12;;;;;;;;;;;23.80;99.90;;;;;;5055838;28;19928;-77
2022/06/06 09:59:38;;;;;;;;;;;23.70;99.90;;;;;;5068236;28;19939;-76
2022/06/06 10:02:22;;;;;;;;;;;23.30;99.90;;;;;;5072468;28;20581;-72
2022/06/06 10:05:09;;;;;;;;;;;23.30;99.90;;;;;;5051778;28;20438;-74
2022/06/06 10:07:54;;;;;;;;;;;24.00;99.90;;;;;;5062682;28;20015;-75
2022/06/06 10:10:36;;;;;;;;;;;24.90;99.90;;;;;;5070992;28;19970;-74
2022/06/06 10:13:06;;;;;;;;;;;26.10;99.90;;;;;;5051352;28;19974;-74
2022/06/06 10:16:02;;;;;;;;;;;26.80;99.90;;;;;;5065192;28;19931;-75
2022/06/06 10:18:32;;;;;;;;;;;27.50;99.90;;;;;;5026693;28;19972;-74
2022/06/06 10:21:04;;;;;;;;;;;28.00;99.90;;;;;;5008984;28;19935;-72
2022/06/06 10:23:43;;;;;;;;;;;28.50;99.90;;;;;;5008329;28;19926;-71
2022/06/06 10:26:11;;;;;;;;;;;28.70;99.90;;;;;;5008462;28;19925;-74
2022/06/06 10:28:43;;;;;;;;;;;29.10;99.90;;;;;;5010563;28;19932;-75
2022/06/06 10:31:32;;;;;;;;;;;29.30;99.90;;;;;;5027883;28;19932;-75
2022/06/06 10:34:18;;;;;;;;;;;29.40;99.90;;;;;;5026280;28;20008;-72
2022/06/06 10:36:59;;;;;;;;;;;29.00;99.90;;;;;;5027589;28;20036;-74
2022/06/06 10:39:40;;;;;;;;;;;28.70;99.90;;;;;;5028318;28;19925;-74
2022/06/06 10:42:30;;;;;;;;;;;28.50;99.90;;;;;;5026964;28;20479;-76
2022/06/06 10:44:58;;;;;;;;;;;28.50;99.90;;;;;;5001258;28;19929;-71
2022/06/06 10:47:27;;;;;;;;;;;28.20;99.90;;;;;;5028356;28;20332;-75
2022/06/06 10:49:59;;;;;;;;;;;27.80;99.90;;;;;;5028405;28;19925;-74
2022/06/06 10:52:47;;;;;;;;;;;27.50;99.90;;;;;;5028200;28;19929;-73
2022/06/06 10:55:16;;;;;;;;;;;27.60;99.90;;;;;;5051703;28;19975;-73
2022/06/06 10:58:04;;;;;;;;;;;27.60;99.90;;;;;;5069604;28;19925;-76
2022/06/06 11:00:37;;;;;;;;;;;26.60;99.90;;;;;;5066627;28;19925;-74
2022/06/06 11:03:07;;;;;;;;;;;26.00;99.90;;;;;;5073054;28;19931;-75
2022/06/06 11:05:37;;;;;;;;;;;25.50;99.90;;;;;;5073650;28;20003;-76
2022/06/06 11:08:03;;;;;;;;;;;25.10;99.90;;;;;;5074487;28;20488;-75
2022/06/06 11:10:38;;;;;;;;;;;25.10;99.90;;;;;;5074141;28;20381;-73
2022/06/06 11:13:23;;;;;;;;;;;25.30;99.90;;;;;;5039996;28;25076;-72
2022/06/06 11:15:53;;;;;;;;;;;25.20;99.90;;;;;;5074890;28;20375;-76
2022/06/06 11:18:34;;;;;;;;;;;25.00;99.90;;;;;;5073660;28;19939;-72
2022/06/06 11:21:04;;;;;;;;;;;24.90;99.90;;;;;;5074544;28;20546;-78
2022/06/06 11:24:01;;;;;;;;;;;24.30;99.90;;;;;;5070761;28;20069;-77
2022/06/06 11:26:41;;;;;;;;;;;24.10;99.90;;;;;;5073799;28;19970;-75
2022/06/06 11:29:20;;;;;;;;;;;23.90;99.90;;;;;;5079422;28;20151;-73
2022/06/06 11:32:08;;;;;;;;;;;24.00;99.90;;;;;;5077757;28;19935;-75
2022/06/06 11:34:53;;;;;;;;;;;24.30;99.90;;;;;;5072531;28;19924;-74
2022/06/06 11:37:39;;;;;;;;;;;24.60;99.90;;;;;;5074758;28;19931;-77
2022/06/06 11:40:25;;;;;;;;;;;25.20;99.90;;;;;;5073200;28;19971;-77
2022/06/06 11:42:54;;;;;;;;;;;25.80;99.90;;;;;;5053865;28;20040;-72
2022/06/06 11:45:48;;;;;;;;;;;26.00;99.90;;;;;;5053956;28;19931;-73
2022/06/06 11:48:34;;;;;;;;;;;26.20;99.90;;;;;;5052114;28;19982;-73
2022/06/06 11:51:19;;;;;;;;;;;26.10;99.90;;;;;;5052286;28;19925;-75
2022/06/06 11:54:11;;;;;;;;;;;25.40;99.90;;;;;;5066909;28;20448;-74
2022/06/06 11:56:59;;;;;;;;;;;25.20;99.90;;;;;;5071174;28;20014;-74
2022/06/06 11:59:44;;;;;;;;;;;25.40;99.90;;;;;;5072593;28;20007;-78
2022/06/06 12:02:17;;;;;;;;;;;25.70;99.90;;;;;;5069069;28;19925;-74
2022/06/06 12:04:49;;;;;;;;;;;25.90;99.90;;;;;;5072350;28;20007;-73
2022/06/06 12:07:16;;;;;;;;;;;26.00;99.90;;;;;;5074125;28;20385;-73
2022/06/06 12:10:01;;;;;;;;;;;26.30;99.90;;;;;;5080559;28;19931;-77
2022/06/06 12:12:50;;;;;;;;;;;26.70;99.90;;;;;;5054706;28;20425;-74
2022/06/06 12:15:19;;;;;;;;;;;27.00;99.90;;;;;;5067556;28;19925;-78
2022/06/06 12:17:56;;;;;;;;;;;27.20;99.90;;;;;;5074369;28;19968;-74
2022/06/06 12:20:38;;;;;;;;;;;27.50;99.90;;;;;;5074391;28;19931;-75
2022/06/06 12:23:17;;;;;;;;;;;27.50;99.90;;;;;;5073321;28;19925;-72
2022/06/06 12:25:49;;;;;;;;;;;26.80;99.90;;;;;;5073456;28;20457;-76
2022/06/06 12:28:35;;;;;;;;;;;26.60;99.90;;;;;;5057887;28;19932;-74
2022/06/06 12:31:02;;;;;;;;;;;26.60;99.90;;;;;;5068587;28;20016;-75
2022/06/06 12:33:40;;;;;;;;;;;26.50;99.90;;;;;;5070991;28;20414;-74
2022/06/06 12:36:14;;;;;;;;;;;26.30;99.90;;;;;;5060564;28;19931;-74
2022/06/06 12:38:50;;;;;;;;;;;26.20;99.90;;;;;;5068333;28;20337;-76
2022/06/06 12:41:29;;;;;;;;;;;26.20;99.90;;;;;;5053171;28;19925;-73
2022/06/06 12:43:56;;;;;;;;;;;26.60;99.90;;;;;;5053141;28;19932;-76
2022/06/06 12:46:22;;;;;;;;;;;26.60;99.90;;;;;;5053438;28;19925;-76
2022/06/06 12:49:01;;;;;;;;;;;26.00;99.90;;;;;;5053362;28;19932;-78
2022/06/06 12:51:39;;;;;;;;;;;26.20;99.90;;;;;;5053565;28;20389;-77
2022/06/06 12:54:25;;;;;;;;;;;26.20;99.90;;;;;;5056617;28;20011;-73
2022/06/06 12:56:53;;;;;;;;;;;25.80;99.90;;;;;;5051887;28;19925;-76
2022/06/06 12:59:36;;;;;;;;;;;25.60;99.90;;;;;;5056754;28;19932;-78
2022/06/06 13:02:08;;;;;;;;;;;26.00;99.90;;;;;;5073327;28;19947;-75
2022/06/06 13:04:58;;;;;;;;;;;26.70;99.90;;;;;;5072864;28;19931;-74
2022/06/06 13:07:41;;;;;;;;;;;26.60;99.90;;;;;;5073001;28;19931;-74
2022/06/06 13:10:12;;;;;;;;;;;26.70;99.90;;;;;;5072217;28;19928;-75
2022/06/06 13:12:58;;;;;;;;;;;27.00;99.90;;;;;;5073415;28;19931;-74
2022/06/06 13:15:31;;;;;;;;;;;27.10;99.90;;;;;;5072838;28;19924;-75
2022/06/06 13:18:04;;;;;;;;;;;27.40;99.90;;;;;;5071638;28;20690;-75
2022/06/06 13:21:00;;;;;;;;;;;27.70;99.90;;;;;;5072043;28;19928;-73
2022/06/06 13:23:42;;;;;;;;;;;27.70;99.90;;;;;;5018928;28;19925;-75
2022/06/06 13:26:29;;;;;;;;;;;27.50;99.90;;;;;;5015075;28;19925;-75
2022/06/06 13:28:55;;;;;;;;;;;26.90;99.90;;;;;;5029965;28;19925;-75
2022/06/06 13:31:28;;;;;;;;;;;26.60;99.90;;;;;;5022818;28;20265;-77
2022/06/06 13:34:15;;;;;;;;;;;26.60;99.90;;;;;;5028947;28;19956;-74
2022/06/06 13:37:00;;;;;;;;;;;26.50;99.90;;;;;;5014883;28;19961;-74
2022/06/06 13:39:33;;;;;;;;;;;26.60;99.90;;;;;;5028404;28;19948;-75
2022/06/06 13:42:03;;;;;;;;;;;26.90;99.90;;;;;;5029116;28;20537;-74
2022/06/06 13:44:34;;;;;;;;;;;27.80;99.90;;;;;;5029083;28;19925;-74
2022/06/06 13:47:19;;;;;;;;;;;28.70;99.90;;;;;;5029224;28;19929;-75
2022/06/06 13:50:02;;;;;;;;;;;28.70;99.90;;;;;;5029541;28;19940;-72
2022/06/06 13:52:29;;;;;;;;;;;29.20;99.90;;;;;;5029456;28;19979;-74
2022/06/06 13:54:55;;;;;;;;;;;29.50;99.90;;;;;;5028773;28;19968;-74
2022/06/06 13:57:25;;;;;;;;;;;29.50;99.90;;;;;;5028066;28;20299;-74
2022/06/06 13:59:58;;;;;;;;;;;29.50;99.90;;;;;;5049352;28;20402;-73
2022/06/06 14:02:43;;;;;;;;;;;29.60;99.90;;;;;;5070503;28;20019;-73
2022/06/06 14:05:20;;;;;;;;;;;29.50;99.90;;;;;;5068986;28;20039;-75
2022/06/06 14:08:09;;;;;;;;;;;30.00;99.90;;;;;;5071378;28;19924;-72
2022/06/06 14:10:45;;;;;;;;;;;30.50;99.50;;;;;;5063280;28;19924;-73
2022/06/06 14:13:17;;;;;;;;;;;29.80;99.50;;;;;;5050939;28;19928;-74
2022/06/06 14:15:46;;;;;;;;;;;29.90;99.40;;;;;;5051824;28;19947;-72
2022/06/06 14:18:17;;;;;;;;;;;30.60;99.80;;;;;;5051364;28;20359;-72
2022/06/06 14:20:57;;;;;;;;;;;30.40;97.60;;;;;;5051381;28;20011;-72
2022/06/06 14:23:31;;;;;;;;;;;29.90;98.10;;;;;;5071275;28;20003;-75
2022/06/06 14:26:03;;;;;;;;;;;30.10;98.50;;;;;;5071238;28;19924;-73
2022/06/06 14:28:34;;;;;;;;;;;30.80;98.00;;;;;;5070078;28;19979;-73
2022/06/06 14:31:05;;;;;;;;;;;31.30;97.20;;;;;;5071396;28;20565;-75
2022/06/06 14:33:34;;;;;;;;;;;31.40;95.60;;;;;;5070584;28;19955;-75
2022/06/06 14:36:20;;;;;;;;;;;31.30;95.10;;;;;;5071433;28;19932;-73
2022/06/06 14:38:54;;;;;;;;;;;31.20;96.10;;;;;;5075273;28;20425;-74
2022/06/06 14:41:21;;;;;;;;;;;31.20;95.50;;;;;;5073815;28;19932;-74
2022/06/06 14:43:52;;;;;;;;;;;30.90;94.00;;;;;;5053741;28;19929;-73
2022/06/06 14:46:19;;;;;;;;;;;30.60;94.50;;;;;;5056053;28;20291;-73
2022/06/06 14:48:49;;;;;;;;;;;30.70;94.10;;;;;;5055103;28;19932;-75
2022/06/06 14:51:16;;;;;;;;;;;30.70;93.40;;;;;;5054970;28;19924;-70
2022/06/06 14:53:50;;;;;;;;;;;30.10;93.60;;;;;;5056453;28;19968;-71
2022/06/06 14:56:33;;;;;;;;;;;28.70;94.40;;;;;;5074388;28;19924;-69
2022/06/06 14:59:08;;;;;;;;;;;27.00;97.20;;;;;;5074926;28;19924;-71
2022/06/06 15:01:35;;;;;;;;;;;26.90;98.40;;;;;;5063204;28;19956;-72
2022/06/06 15:04:34;;;;;;;;;;;27.50;98.30;;;;;;5055516;28;19928;-71
2022/06/06 15:07:01;;;;;;;;;;;27.20;98.60;;;;;;5070893;28;19928;-70
2022/06/06 15:09:46;;;;;;;;;;;26.60;99.40;;;;;;5072557;28;19967;-73
2022/06/06 15:12:23;;;;;;;;;;;26.30;99.90;;;;;;5071732;28;20122;-73
2022/06/06 15:14:54;;;;;;;;;;;27.40;99.90;;;;;;5070481;28;20590;-68
2022/06/06 15:17:20;;;;;;;;;;;29.20;99.10;;;;;;5071801;28;19932;-68
2022/06/06 15:19:52;;;;;;;;;;;29.20;97.50;;;;;;5076283;28;19924;-72
2022/06/06 15:22:30;;;;;;;;;;;28.40;97.90;;;;;;5071647;28;19931;-75
2022/06/06 15:24:59;;;;;;;;;;;28.70;98.10;;;;;;5070752;28;19931;-69